Time;durP1;ratioP1;P1;durP2;ratioP2;P2;SDS_P1;SDS_P2;PMS_P1;PMS_P2;Temp;Humidity;BMP_temperature;BMP_pressure;BME280_temperature;BME280_humidity;BME280_pressure;Samples;Min_cycle;Max_cycle;Signal;HPM_P1;HPM_P2
2021/01/06 00:04:43;;;;;;;48.23;27.70;;;;;2.90;101172.00;;;;10444477;28;20588;-77
2021/01/06 00:09:44;;;;;;;50.40;29.23;;;;;2.90;101175.00;;;;10421713;28;20195;-77
2021/01/06 00:14:45;;;;;;;48.63;27.03;;;;;2.90;101167.00;;;;10402748;28;20642;-77
2021/01/06 00:19:47;;;;;;;48.43;26.87;;;;;2.90;101161.00;;;;10419823;28;20269;-77
2021/01/06 00:24:48;;;;;;;46.53;27.03;;;;;2.90;101163.00;;;;10401611;28;20203;-77
2021/01/06 00:29:49;;;;;;;45.83;24.87;;;;;2.90;101161.00;;;;10401086;28;20218;-77
2021/01/06 00:34:51;;;;;;;46.47;26.67;;;;;2.90;101156.00;;;;10383788;28;20555;-77
2021/01/06 00:39:52;;;;;;;42.83;23.43;;;;;3.00;101161.00;;;;10401164;28;20215;-77
2021/01/06 00:44:53;;;;;;;43.10;25.53;;;;;3.00;101154.00;;;;10403118;28;20776;-77
2021/01/06 00:49:55;;;;;;;39.90;23.30;;;;;3.00;101157.00;;;;10441081;28;20273;-77
2021/01/06 00:54:57;;;;;;;34.83;21.40;;;;;3.00;101155.00;;;;10441451;28;20197;-77
2021/01/06 00:59:58;;;;;;;42.00;22.33;;;;;3.00;101163.00;;;;10440877;28;20222;-77
2021/01/06 01:05:00;;;;;;;38.80;21.23;;;;;3.00;101154.00;;;;10441002;28;20194;-77
2021/01/06 01:10:04;;;;;;;37.83;21.40;;;;;3.00;101145.00;;;;10415953;28;20238;-77
2021/01/06 01:15:06;;;;;;;35.80;20.67;;;;;3.00;101157.00;;;;10392660;28;20245;-77
2021/01/06 01:20:09;;;;;;;38.00;18.93;;;;;3.10;101150.00;;;;10398562;28;20268;-77
2021/01/06 01:25:22;;;;;;;31.53;18.97;;;;;3.10;101148.00;;;;10382111;28;20265;-77
2021/01/06 01:30:27;;;;;;;31.90;19.33;;;;;3.10;101148.00;;;;10398912;28;20197;-77
2021/01/06 01:35:31;;;;;;;34.07;19.27;;;;;3.10;101149.00;;;;10414410;28;20203;-77
2021/01/06 01:40:38;;;;;;;36.07;18.80;;;;;3.10;101151.00;;;;10382376;28;20244;-77
2021/01/06 01:46:03;;;;;;;30.13;19.47;;;;;3.10;101149.00;;;;10427410;28;20223;-77
2021/01/06 01:51:17;;;;;;;30.50;18.30;;;;;3.20;101147.00;;;;10364531;28;20190;-77
2021/01/06 01:56:23;;;;;;;29.57;17.13;;;;;3.20;101161.00;;;;10457448;28;20194;-77
2021/01/06 02:01:25;;;;;;;30.33;17.73;;;;;3.20;101151.00;;;;10439806;28;20212;-77
2021/01/06 02:06:34;;;;;;;31.37;17.57;;;;;3.20;101144.00;;;;10427390;28;20191;-77
2021/01/06 02:11:47;;;;;;;31.70;17.37;;;;;3.20;101146.00;;;;10399344;28;20187;-77
2021/01/06 02:16:51;;;;;;;31.03;18.53;;;;;3.20;101149.00;;;;10409344;28;20229;-77
2021/01/06 02:21:52;;;;;;;27.87;17.73;;;;;3.20;101142.00;;;;10434917;28;20191;-77
2021/01/06 02:26:54;;;;;;;30.73;19.60;;;;;3.20;101150.00;;;;10413770;28;20658;-77
2021/01/06 02:31:55;;;;;;;36.73;18.50;;;;;3.20;101140.00;;;;10415427;28;20561;-77
2021/01/06 02:36:58;;;;;;;29.37;18.67;;;;;3.30;101153.00;;;;10397639;28;20241;-77
2021/01/06 02:42:01;;;;;;;30.40;17.90;;;;;3.20;101141.00;;;;10398521;28;20191;-77
2021/01/06 02:47:03;;;;;;;31.70;18.43;;;;;3.30;101149.00;;;;10418472;28;20202;-77
2021/01/06 02:52:30;;;;;;;28.73;17.57;;;;;3.30;101144.00;;;;10455623;28;20194;-77
2021/01/06 02:57:35;;;;;;;31.47;19.60;;;;;3.30;101147.00;;;;10439048;28;20214;-77
2021/01/06 03:02:37;;;;;;;34.70;19.63;;;;;3.30;101138.00;;;;10389049;28;20215;-77
2021/01/06 03:07:40;;;;;;;38.30;20.33;;;;;3.30;101139.00;;;;10404693;28;20218;-77
2021/01/06 03:12:42;;;;;;;33.70;19.60;;;;;3.30;101133.00;;;;10424417;28;20201;-77
2021/01/06 03:17:44;;;;;;;35.93;19.10;;;;;3.30;101134.00;;;;10446074;28;20272;-77
2021/01/06 03:22:50;;;;;;;38.67;20.23;;;;;3.30;101130.00;;;;10446142;28;20600;-77
2021/01/06 03:27:53;;;;;;;33.83;18.93;;;;;3.30;101123.00;;;;10462930;28;20197;-77
2021/01/06 03:33:36;;;;;;;38.20;20.70;;;;;3.30;101128.00;;;;10428962;28;20198;-77
2021/01/06 03:38:41;;;;;;;38.70;19.27;;;;;3.30;101120.00;;;;10295903;28;20240;-77
2021/01/06 03:43:58;;;;;;;39.53;20.37;;;;;3.30;101120.00;;;;10410622;28;20230;-77
2021/01/06 03:49:47;;;;;;;39.87;20.30;;;;;3.30;101118.00;;;;10429130;28;20281;-77
2021/01/06 03:55:28;;;;;;;42.57;20.77;;;;;3.30;101120.00;;;;10420276;28;20194;-77
2021/01/06 04:00:48;;;;;;;42.50;20.47;;;;;3.30;101116.00;;;;10431123;28;20234;-77
2021/01/06 04:05:52;;;;;;;44.70;22.83;;;;;3.30;101111.00;;;;10432246;28;20581;-77
2021/01/06 04:10:56;;;;;;;40.83;21.27;;;;;3.30;101117.00;;;;10404436;28;20598;-77
2021/01/06 04:15:57;;;;;;;39.37;20.27;;;;;3.30;101121.00;;;;10405179;28;20215;-77
2021/01/06 04:21:03;;;;;;;42.93;20.63;;;;;3.30;101118.00;;;;10388901;28;20281;-77
2021/01/06 04:26:05;;;;;;;41.57;20.13;;;;;3.30;101119.00;;;;10418084;28;20270;-77
2021/01/06 04:31:15;;;;;;;44.37;22.27;;;;;3.40;101110.00;;;;10445803;28;20646;-78
2021/01/06 04:36:18;;;;;;;42.23;21.60;;;;;3.30;101109.00;;;;10445066;28;20681;-77
2021/01/06 04:41:38;;;;;;;37.47;19.27;;;;;3.30;101117.00;;;;10461068;28;20194;-77
2021/01/06 04:47:07;;;;;;;32.57;17.60;;;;;3.40;101118.00;;;;10444027;28;20213;-77
2021/01/06 04:52:39;;;;;;;30.23;16.67;;;;;3.40;101105.00;;;;10461001;28;20687;-77
2021/01/06 04:57:56;;;;;;;34.60;17.67;;;;;3.40;101106.00;;;;10422801;28;20211;-77
2021/01/06 05:03:16;;;;;;;34.33;17.73;;;;;3.30;101103.00;;;;10461695;28;20193;-77
2021/01/06 05:08:21;;;;;;;29.10;16.63;;;;;3.30;101108.00;;;;10444017;28;20217;-77
2021/01/06 05:13:30;;;;;;;30.40;15.87;;;;;3.30;101092.00;;;;10436866;28;20206;-77
2021/01/06 05:18:31;;;;;;;29.57;16.40;;;;;3.30;101104.00;;;;10402905;28;20211;-77
2021/01/06 05:23:36;;;;;;;34.07;16.43;;;;;3.30;101095.00;;;;10419839;28;20193;-77
2021/01/06 05:28:38;;;;;;;35.93;18.17;;;;;3.30;101113.00;;;;10415500;28;20195;-77
2021/01/06 05:33:44;;;;;;;31.20;15.13;;;;;3.30;101106.00;;;;10424430;28;20260;-77
2021/01/06 05:38:45;;;;;;;35.77;18.63;;;;;3.30;101103.00;;;;10441267;28;20210;-77
2021/01/06 05:43:53;;;;;;;34.80;17.93;;;;;3.30;101099.00;;;;10425387;28;20241;-77
2021/01/06 05:49:18;;;;;;;34.87;17.17;;;;;3.30;101105.00;;;;10416292;28;20775;-77
2021/01/06 05:54:27;;;;;;;34.87;17.67;;;;;3.30;101102.00;;;;10384898;28;20252;-77
2021/01/06 05:59:35;;;;;;;35.33;17.40;;;;;3.30;101095.00;;;;10397388;28;20274;-77
2021/01/06 06:05:12;;;;;;;33.57;18.67;;;;;3.30;101106.00;;;;10450875;28;20194;-77
2021/01/06 06:10:48;;;;;;;35.77;18.57;;;;;3.30;101113.00;;;;10442375;28;20198;-77
2021/01/06 06:15:57;;;;;;;34.57;19.40;;;;;3.30;101108.00;;;;10419453;28;20248;-77
2021/01/06 06:21:25;;;;;;;41.20;17.97;;;;;3.30;101107.00;;;;10411215;28;20245;-78
2021/01/06 06:26:35;;;;;;;34.80;17.70;;;;;3.30;101118.00;;;;10385920;28;20248;-78
2021/01/06 06:31:38;;;;;;;37.47;19.03;;;;;3.30;101112.00;;;;10429688;28;20198;-78
2021/01/06 06:36:45;;;;;;;35.53;17.83;;;;;3.30;101118.00;;;;10435953;28;20210;-78
2021/01/06 06:41:48;;;;;;;33.23;17.93;;;;;3.30;101118.00;;;;10470025;28;20232;-78
2021/01/06 06:47:12;;;;;;;33.13;18.37;;;;;3.30;101119.00;;;;10452658;28;20257;-77
2021/01/06 06:52:26;;;;;;;34.80;17.73;;;;;3.30;101125.00;;;;10468706;28;20194;-78
2021/01/06 06:57:29;;;;;;;35.37;20.27;;;;;3.30;101129.00;;;;10429399;28;20213;-78
2021/01/06 07:02:30;;;;;;;35.53;18.13;;;;;3.30;101129.00;;;;10443844;28;20210;-78
2021/01/06 07:07:43;;;;;;;35.10;18.27;;;;;3.30;101133.00;;;;10467191;28;20190;-77
2021/01/06 07:12:46;;;;;;;31.23;16.47;;;;;3.30;101128.00;;;;10414959;28;20222;-78
2021/01/06 07:17:48;;;;;;;34.73;17.30;;;;;3.30;101139.00;;;;10393955;28;20321;-77
2021/01/06 07:22:59;;;;;;;28.60;15.83;;;;;3.30;101141.00;;;;10395251;28;20195;-77
2021/01/06 07:28:04;;;;;;;29.80;15.60;;;;;3.30;101142.00;;;;10425018;28;20182;-77
2021/01/06 07:33:25;;;;;;;33.03;16.63;;;;;3.30;101147.00;;;;10435348;28;20217;-78
2021/01/06 07:38:33;;;;;;;30.53;14.93;;;;;3.30;101151.00;;;;10450011;28;20213;-78
2021/01/06 07:43:38;;;;;;;29.40;15.50;;;;;3.30;101155.00;;;;10438768;28;20214;-78
2021/01/06 07:48:43;;;;;;;30.13;14.87;;;;;3.20;101158.00;;;;10415601;28;20199;-78
2021/01/06 07:53:52;;;;;;;25.03;13.63;;;;;3.20;101173.00;;;;10406923;28;20218;-77
2021/01/06 07:58:57;;;;;;;25.50;14.00;;;;;3.20;101170.00;;;;10440942;28;20199;-78
2021/01/06 08:04:13;;;;;;;28.37;15.53;;;;;3.20;101178.00;;;;10413810;28;20203;-78
2021/01/06 08:09:29;;;;;;;31.70;17.03;;;;;3.20;101180.00;;;;10455203;28;20197;-78
2021/01/06 08:14:33;;;;;;;31.47;16.60;;;;;3.20;101190.00;;;;10420273;28;20213;-78
2021/01/06 08:19:41;;;;;;;32.27;17.00;;;;;3.30;101186.00;;;;10442545;28;20264;-77
2021/01/06 08:25:09;;;;;;;32.07;16.43;;;;;3.30;101184.00;;;;10455157;28;20198;-78
2021/01/06 08:30:22;;;;;;;30.47;17.13;;;;;3.40;101191.00;;;;10432780;28;20191;-78
2021/01/06 08:35:30;;;;;;;30.83;17.00;;;;;3.40;101188.00;;;;10399325;28;20217;-78
2021/01/06 08:40:31;;;;;;;33.93;18.00;;;;;3.40;101182.00;;;;10408299;28;20210;-78
2021/01/06 08:45:37;;;;;;;29.40;17.20;;;;;3.60;101190.00;;;;10446707;28;20215;-78
2021/01/06 08:50:42;;;;;;;36.20;18.70;;;;;3.70;101181.00;;;;10422503;28;20569;-78
2021/01/06 08:55:56;;;;;;;36.33;19.60;;;;;3.70;101202.00;;;;10432896;28;20643;-78
2021/01/06 09:01:00;;;;;;;40.20;21.20;;;;;3.70;101195.00;;;;10445556;28;20194;-78
2021/01/06 09:06:12;;;;;;;34.83;19.30;;;;;3.70;101199.00;;;;10423885;28;20220;-78
2021/01/06 09:11:27;;;;;;;37.53;20.33;;;;;3.70;101197.00;;;;10438219;28;20535;-78
2021/01/06 09:16:39;;;;;;;32.47;18.60;;;;;3.80;101207.00;;;;10475848;28;20209;-78
2021/01/06 09:21:41;;;;;;;33.67;18.80;;;;;3.80;101206.00;;;;10488325;28;20690;-78
2021/01/06 09:26:46;;;;;;;31.50;18.33;;;;;3.80;101204.00;;;;10432740;28;20190;-77
2021/01/06 09:31:57;;;;;;;33.60;18.10;;;;;3.70;101206.00;;;;10455495;28;20198;-78
2021/01/06 09:36:58;;;;;;;38.10;19.83;;;;;3.60;101209.00;;;;10450825;28;20673;-78
2021/01/06 09:42:02;;;;;;;34.40;18.93;;;;;3.60;101208.00;;;;10438844;28;20185;-78
2021/01/06 09:47:11;;;;;;;37.67;20.23;;;;;3.60;101211.00;;;;10446474;28;20303;-78
2021/01/06 09:52:21;;;;;;;34.43;18.67;;;;;3.70;101210.00;;;;10450316;28;20202;-78
2021/01/06 09:57:24;;;;;;;36.80;19.90;;;;;3.70;101220.00;;;;10466490;28;20224;-78
2021/01/06 10:02:33;;;;;;;36.30;22.07;;;;;3.70;101207.00;;;;10466588;28;20255;-78
2021/01/06 10:07:53;;;;;;;32.67;19.87;;;;;3.80;101217.00;;;;10445398;28;20194;-78
2021/01/06 10:13:22;;;;;;;34.57;20.03;;;;;3.80;101205.00;;;;10474771;28;20213;-78
2021/01/06 10:18:37;;;;;;;37.47;21.73;;;;;3.80;101205.00;;;;10476942;28;20205;-78
2021/01/06 10:24:02;;;;;;;39.80;21.43;;;;;3.80;101202.00;;;;10499525;28;20189;-78
2021/01/06 10:29:12;;;;;;;36.13;21.53;;;;;3.80;101202.00;;;;10467618;28;20194;-78
2021/01/06 10:34:29;;;;;;;36.37;21.87;;;;;3.80;101201.00;;;;10490400;28;20256;-78
2021/01/06 10:39:53;;;;;;;34.67;21.90;;;;;3.70;101204.00;;;;10486571;28;20244;-78
2021/01/06 10:45:11;;;;;;;37.53;23.30;;;;;3.70;101201.00;;;;10478504;28;20225;-78
2021/01/06 10:50:22;;;;;;;34.33;21.17;;;;;3.70;101186.00;;;;10449742;28;20604;-78
2021/01/06 10:55:39;;;;;;;38.90;22.53;;;;;3.70;101188.00;;;;10447172;28;20565;-78
2021/01/06 11:01:05;;;;;;;39.27;24.37;;;;;3.70;101177.00;;;;10425728;28;20213;-78
2021/01/06 11:06:25;;;;;;;42.10;22.80;;;;;3.70;101185.00;;;;10424692;28;20206;-77
2021/01/06 11:11:35;;;;;;;36.40;21.50;;;;;3.80;101182.00;;;;10451608;28;20197;-77
2021/01/06 11:17:16;;;;;;;37.00;21.23;;;;;3.90;101175.00;;;;10429604;28;20233;-78
2021/01/06 11:22:33;;;;;;;40.23;23.00;;;;;3.90;101171.00;;;;10390480;28;20206;-78
2021/01/06 11:27:44;;;;;;;33.50;20.57;;;;;3.90;101171.00;;;;10466912;28;20939;-77
2021/01/06 11:32:46;;;;;;;37.00;22.23;;;;;3.90;101162.00;;;;10443119;28;20638;-78
2021/01/06 11:37:48;;;;;;;37.30;21.93;;;;;3.90;101158.00;;;;10414483;28;20203;-78
2021/01/06 11:42:55;;;;;;;34.00;20.93;;;;;3.80;101160.00;;;;10429409;28;20206;-78
2021/01/06 11:48:18;;;;;;;34.50;21.53;;;;;3.80;101164.00;;;;10423354;28;20222;-77
2021/01/06 11:53:26;;;;;;;26.80;17.03;;;;;4.00;101148.00;;;;10440974;28;20249;-77
2021/01/06 11:58:35;;;;;;;31.23;18.60;;;;;4.40;101146.00;;;;10455694;28;20216;-77
2021/01/06 12:04:04;;;;;;;28.70;17.80;;;;;4.60;101144.00;;;;10427836;28;600780;-77
2021/01/06 12:09:15;;;;;;;30.13;18.50;;;;;4.50;101137.00;;;;10447521;28;20218;-77
2021/01/06 12:14:28;;;;;;;28.50;18.33;;;;;4.40;101131.00;;;;10464125;28;20195;-77
2021/01/06 12:19:50;;;;;;;27.13;17.67;;;;;4.20;101128.00;;;;10414737;28;20210;-77
2021/01/06 12:25:16;;;;;;;28.90;17.87;;;;;4.10;101120.00;;;;10432331;28;20175;-77
2021/01/06 12:30:43;;;;;;;28.03;17.40;;;;;4.10;101118.00;;;;10425214;28;20285;-77
2021/01/06 12:35:47;;;;;;;26.77;17.73;;;;;4.10;101111.00;;;;10464240;28;20201;-78
2021/01/06 12:41:03;;;;;;;27.70;17.30;;;;;4.10;101116.00;;;;10463483;28;20257;-78
2021/01/06 12:46:17;;;;;;;26.87;17.23;;;;;4.10;101112.00;;;;10417340;28;20223;-77
2021/01/06 12:51:23;;;;;;;26.87;18.67;;;;;4.10;101114.00;;;;10403599;28;20183;-77
2021/01/06 12:56:35;;;;;;;26.57;16.27;;;;;4.10;101111.00;;;;10387943;28;20191;-77
2021/01/06 13:01:44;;;;;;;24.57;16.97;;;;;4.20;101113.00;;;;10404667;28;20210;-78
2021/01/06 13:06:55;;;;;;;25.27;16.90;;;;;4.30;101116.00;;;;10411328;28;20190;-78
2021/01/06 13:12:09;;;;;;;23.97;16.30;;;;;4.50;101107.00;;;;10420354;28;20195;-77
2021/01/06 13:17:14;;;;;;;25.23;17.07;;;;;4.60;101104.00;;;;10459702;28;20309;-78
2021/01/06 13:22:22;;;;;;;25.60;17.63;;;;;4.70;101106.00;;;;10462294;28;20574;-77
2021/01/06 13:27:53;;;;;;;25.00;16.03;;;;;4.60;101102.00;;;;10444619;28;20194;-77
2021/01/06 13:33:04;;;;;;;23.83;16.80;;;;;4.50;101109.00;;;;10436862;28;20198;-77
2021/01/06 13:38:14;;;;;;;23.97;16.73;;;;;4.40;101104.00;;;;10462040;28;20206;-78
2021/01/06 13:43:40;;;;;;;20.70;14.27;;;;;4.30;101108.00;;;;10444824;28;20217;-77
2021/01/06 13:49:17;;;;;;;21.40;14.13;;;;;4.20;101107.00;;;;10444951;28;20620;-78
2021/01/06 13:54:36;;;;;;;20.20;13.27;;;;;4.20;101100.00;;;;10462226;28;20236;-78
2021/01/06 13:59:59;;;;;;;19.80;13.87;;;;;4.20;101104.00;;;;10443918;28;20303;-78
2021/01/06 14:05:06;;;;;;;20.93;14.33;;;;;4.20;101106.00;;;;10394527;28;20191;-77
2021/01/06 14:10:22;;;;;;;22.40;15.27;;;;;4.20;101107.00;;;;10453087;28;20191;-77
2021/01/06 14:15:49;;;;;;;22.30;14.17;;;;;4.10;101117.00;;;;10427053;28;20198;-77
2021/01/06 14:21:13;;;;;;;21.63;14.87;;;;;3.90;101111.00;;;;10445365;28;20625;-78
2021/01/06 14:26:29;;;;;;;20.50;14.60;;;;;3.80;101115.00;;;;10431092;28;20202;-78
2021/01/06 14:31:34;;;;;;;23.83;16.10;;;;;3.70;101105.00;;;;10402763;28;20183;-77
2021/01/06 14:36:39;;;;;;;18.20;12.40;;;;;3.60;101112.00;;;;10427468;28;20269;-77
2021/01/06 14:42:05;;;;;;;19.00;13.00;;;;;3.60;101122.00;;;;10462378;28;20642;-78
2021/01/06 14:47:45;;;;;;;24.17;13.63;;;;;3.50;101123.00;;;;10405761;28;20264;-77
2021/01/06 14:52:58;;;;;;;22.30;12.67;;;;;3.50;101122.00;;;;10404265;28;20214;-79
2021/01/06 14:58:03;;;;;;;17.03;12.07;;;;;3.50;101118.00;;;;10467720;28;20276;-77
2021/01/06 15:03:43;;;;;;;17.50;12.47;;;;;3.40;101116.00;;;;10456710;28;20195;-78
2021/01/06 15:08:56;;;;;;;19.77;12.97;;;;;3.40;101116.00;;;;10360687;28;20191;-77
2021/01/06 15:14:05;;;;;;;17.23;12.20;;;;;3.40;101116.00;;;;10402879;28;20200;-77
2021/01/06 15:19:16;;;;;;;20.67;13.17;;;;;3.40;101121.00;;;;10466191;28;20218;-77
2021/01/06 15:24:33;;;;;;;19.73;14.00;;;;;3.40;101115.00;;;;10465802;28;20191;-77
2021/01/06 15:29:42;;;;;;;19.23;12.10;;;;;3.30;101126.00;;;;10415814;28;20186;-77
2021/01/06 15:34:44;;;;;;;19.50;13.00;;;;;3.20;101128.00;;;;10448215;28;20194;-78
2021/01/06 15:39:46;;;;;;;19.13;12.53;;;;;3.00;101118.00;;;;10448569;28;20237;-77
2021/01/06 15:44:57;;;;;;;18.70;13.13;;;;;2.90;101127.00;;;;10431440;28;20214;-78
2021/01/06 15:50:05;;;;;;;31.27;20.93;;;;;2.90;101135.00;;;;10431419;28;20191;-77
2021/01/06 15:55:20;;;;;;;21.80;15.57;;;;;2.80;101128.00;;;;10413663;28;20194;-77
2021/01/06 16:00:24;;;;;;;24.57;19.00;;;;;2.70;101125.00;;;;10448345;28;20221;-77
2021/01/06 16:05:36;;;;;;;20.07;13.60;;;;;2.70;101127.00;;;;10382122;28;20191;-78
2021/01/06 16:10:38;;;;;;;57.60;40.20;;;;;2.60;101128.00;;;;10373375;28;20183;-77
2021/01/06 16:15:41;;;;;;;32.50;19.30;;;;;2.60;101131.00;;;;10431630;28;20197;-78
2021/01/06 16:20:42;;;;;;;23.03;14.20;;;;;2.50;101138.00;;;;10429314;28;20685;-77
2021/01/06 16:25:46;;;;;;;25.40;15.60;;;;;2.50;101132.00;;;;10442594;28;20194;-77
2021/01/06 16:30:58;;;;;;;24.90;16.33;;;;;2.40;101134.00;;;;10431239;28;20638;-77
2021/01/06 16:36:15;;;;;;;25.07;16.10;;;;;2.40;101129.00;;;;10447959;28;20178;-77
2021/01/06 16:41:26;;;;;;;25.33;15.07;;;;;2.30;101127.00;;;;10403537;28;20198;-77
2021/01/06 16:46:30;;;;;;;26.90;15.03;;;;;2.30;101125.00;;;;10449091;28;20301;-77
2021/01/06 16:52:02;;;;;;;24.33;15.50;;;;;2.20;101113.00;;;;10417162;28;20191;-77
2021/01/06 16:57:21;;;;;;;23.87;14.77;;;;;2.20;101133.00;;;;10438618;28;20241;-77
2021/01/06 17:02:23;;;;;;;26.00;15.43;;;;;2.10;101135.00;;;;10418220;28;20209;-78
2021/01/06 17:07:37;;;;;;;24.50;15.30;;;;;2.10;101127.00;;;;10449074;28;20230;-77
2021/01/06 17:12:38;;;;;;;28.07;16.53;;;;;2.00;101131.00;;;;10417966;28;20198;-77
2021/01/06 17:17:40;;;;;;;32.47;19.97;;;;;2.00;101125.00;;;;10420622;28;20253;-78
2021/01/06 17:22:42;;;;;;;28.77;15.93;;;;;1.90;101129.00;;;;10427769;28;20198;-78
2021/01/06 17:27:46;;;;;;;23.80;14.17;;;;;1.80;101122.00;;;;10421448;28;20273;-78
2021/01/06 17:32:59;;;;;;;28.40;16.97;;;;;1.70;101124.00;;;;10392603;28;20206;-77
2021/01/06 17:38:05;;;;;;;29.67;18.57;;;;;1.60;101131.00;;;;10407073;28;20674;-77
2021/01/06 17:43:07;;;;;;;29.83;19.07;;;;;1.60;101138.00;;;;10400516;28;20314;-77
2021/01/06 17:48:18;;;;;;;31.83;18.10;;;;;1.60;101142.00;;;;10420181;28;20554;-77
2021/01/06 17:53:20;;;;;;;31.97;18.87;;;;;1.60;101128.00;;;;10442179;28;20198;-77
2021/01/06 17:58:22;;;;;;;32.03;17.50;;;;;1.60;101141.00;;;;10464090;28;20211;-77
2021/01/06 18:03:24;;;;;;;32.20;17.37;;;;;1.60;101150.00;;;;10430944;28;20202;-78
2021/01/06 18:08:33;;;;;;;27.60;16.97;;;;;1.70;101151.00;;;;10458033;28;20260;-77
2021/01/06 18:13:34;;;;;;;28.17;17.23;;;;;1.70;101150.00;;;;10450809;28;20195;-77
2021/01/06 18:18:39;;;;;;;28.57;16.70;;;;;1.70;101152.00;;;;10420510;28;20202;-77
2021/01/06 18:23:41;;;;;;;27.37;17.43;;;;;1.70;101160.00;;;;10402525;28;20195;-78
2021/01/06 18:28:42;;;;;;;29.03;17.13;;;;;1.70;101160.00;;;;10405513;28;20240;-77
2021/01/06 18:33:43;;;;;;;31.83;18.40;;;;;1.70;101157.00;;;;10393953;28;20201;-77
2021/01/06 18:38:59;;;;;;;31.50;18.03;;;;;1.70;101158.00;;;;10433459;28;20256;-77
2021/01/06 18:44:18;;;;;;;31.93;17.87;;;;;1.70;101157.00;;;;10451127;28;20280;-78
2021/01/06 18:49:26;;;;;;;28.17;19.00;;;;;1.70;101147.00;;;;10450552;28;20236;-77
2021/01/06 18:54:31;;;;;;;34.67;18.97;;;;;1.70;101137.00;;;;10467981;28;20778;-77
2021/01/06 18:59:32;;;;;;;28.67;17.10;;;;;1.80;101147.00;;;;10452891;28;20578;-78
2021/01/06 19:04:36;;;;;;;36.27;21.77;;;;;1.80;101148.00;;;;10393787;28;20198;-78
2021/01/06 19:09:37;;;;;;;37.50;20.07;;;;;1.80;101159.00;;;;10398096;28;20191;-78
2021/01/06 19:14:40;;;;;;;30.93;20.17;;;;;1.90;101164.00;;;;10399377;28;20198;-78
2021/01/06 19:19:56;;;;;;;32.47;18.77;;;;;1.90;101171.00;;;;10408332;28;20256;-78
2021/01/06 19:25:17;;;;;;;34.67;18.87;;;;;1.90;101171.00;;;;10392554;28;20198;-78
2021/01/06 19:30:19;;;;;;;37.57;21.67;;;;;1.90;101162.00;;;;10408357;28;20273;-78
2021/01/06 19:35:33;;;;;;;36.07;21.23;;;;;1.90;101164.00;;;;10427785;28;20199;-78
2021/01/06 19:40:35;;;;;;;36.00;21.63;;;;;1.90;101158.00;;;;10465705;28;20289;-78
2021/01/06 19:45:37;;;;;;;39.83;23.90;;;;;1.80;101160.00;;;;10432215;28;20959;-77
2021/01/06 19:50:40;;;;;;;36.23;23.93;;;;;1.80;101158.00;;;;10449008;28;20183;-77
2021/01/06 19:55:48;;;;;;;36.73;22.73;;;;;1.90;101159.00;;;;10448268;28;20198;-78
2021/01/06 20:00:49;;;;;;;37.40;22.17;;;;;1.90;101168.00;;;;10431663;28;20248;-77
2021/01/06 20:06:10;;;;;;;35.70;20.87;;;;;1.90;101160.00;;;;10434469;28;20190;-77
2021/01/06 20:11:13;;;;;;;39.53;22.47;;;;;1.90;101152.00;;;;10428514;28;20240;-77
2021/01/06 20:16:15;;;;;;;40.30;23.73;;;;;1.90;101150.00;;;;10425116;28;20248;-78
2021/01/06 20:21:16;;;;;;;38.60;25.10;;;;;1.90;101143.00;;;;10405330;28;20241;-78
2021/01/06 20:26:20;;;;;;;43.33;24.80;;;;;1.90;101152.00;;;;10389127;28;20205;-77
2021/01/06 20:31:23;;;;;;;40.23;22.33;;;;;1.90;101150.00;;;;10389307;28;20270;-77
2021/01/06 20:36:28;;;;;;;37.50;21.07;;;;;1.90;101144.00;;;;10406355;28;20249;-77
2021/01/06 20:41:31;;;;;;;35.37;21.40;;;;;1.90;101137.00;;;;10388948;28;20587;-77
2021/01/06 20:46:34;;;;;;;33.83;19.97;;;;;1.90;101128.00;;;;10429534;28;20593;-78
2021/01/06 20:51:36;;;;;;;37.90;22.73;;;;;1.90;101130.00;;;;10445510;28;20221;-78
2021/01/06 20:56:37;;;;;;;40.20;21.77;;;;;1.90;101123.00;;;;10445551;28;20205;-78
2021/01/06 21:01:39;;;;;;;33.47;19.57;;;;;1.90;101130.00;;;;10428339;28;20280;-78
2021/01/06 21:06:40;;;;;;;34.50;20.13;;;;;1.90;101113.00;;;;10428798;28;20234;-78
2021/01/06 21:11:41;;;;;;;32.50;20.17;;;;;2.00;101107.00;;;;10400548;28;20190;-77
2021/01/06 21:16:43;;;;;;;41.17;18.63;;;;;2.00;101109.00;;;;10421157;28;20202;-78
2021/01/06 21:21:44;;;;;;;33.70;18.83;;;;;2.00;101116.00;;;;10441611;28;20218;-78
2021/01/06 21:26:46;;;;;;;33.70;19.43;;;;;2.00;101113.00;;;;10462168;28;20198;-78
2021/01/06 21:31:53;;;;;;;35.07;20.63;;;;;2.00;101109.00;;;;10444126;28;20252;-78
2021/01/06 21:36:54;;;;;;;31.30;17.93;;;;;1.90;101113.00;;;;10429152;28;20198;-78
2021/01/06 21:41:56;;;;;;;34.70;19.37;;;;;1.90;101110.00;;;;10416242;28;20190;-78
2021/01/06 21:46:59;;;;;;;36.90;21.40;;;;;1.90;101109.00;;;;10455970;28;20232;-78
2021/01/06 21:52:04;;;;;;;41.60;21.50;;;;;1.80;101105.00;;;;10460139;28;20193;-77
2021/01/06 21:57:05;;;;;;;40.57;20.37;;;;;1.80;101102.00;;;;10411492;28;20229;-77
2021/01/06 22:02:08;;;;;;;36.90;20.63;;;;;1.80;101106.00;;;;10446198;28;20209;-77
2021/01/06 22:07:09;;;;;;;36.77;20.00;;;;;1.80;101101.00;;;;10417672;28;20201;-78
2021/01/06 22:12:10;;;;;;;35.43;19.67;;;;;1.90;101091.00;;;;10424138;28;20285;-77
2021/01/06 22:17:12;;;;;;;34.77;17.67;;;;;1.90;101101.00;;;;10430924;28;20215;-77
2021/01/06 22:22:13;;;;;;;38.47;21.13;;;;;1.90;101093.00;;;;10426313;28;20618;-77
2021/01/06 22:27:16;;;;;;;40.13;20.07;;;;;1.80;101095.00;;;;10426563;28;20665;-78
2021/01/06 22:32:18;;;;;;;31.87;17.50;;;;;1.80;101093.00;;;;10410651;28;20597;-78
2021/01/06 22:37:25;;;;;;;38.43;19.87;;;;;1.70;101100.00;;;;10393356;28;20238;-77
2021/01/06 22:42:26;;;;;;;39.97;20.23;;;;;1.60;101090.00;;;;10440520;28;20569;-77
2021/01/06 22:47:27;;;;;;;34.90;19.77;;;;;1.50;101090.00;;;;10450472;28;20317;-78
2021/01/06 22:52:28;;;;;;;32.93;19.77;;;;;1.50;101095.00;;;;10449870;28;20194;-77
2021/01/06 22:57:30;;;;;;;37.30;20.37;;;;;1.50;101086.00;;;;10433739;28;20229;-78
2021/01/06 23:02:31;;;;;;;34.53;19.37;;;;;1.50;101072.00;;;;10450237;28;20236;-78
2021/01/06 23:07:32;;;;;;;37.70;21.87;;;;;1.60;101074.00;;;;10467191;28;20213;-78
2021/01/06 23:12:34;;;;;;;38.80;21.20;;;;;1.60;101069.00;;;;10448689;28;20204;-77
2021/01/06 23:17:35;;;;;;;42.80;24.87;;;;;1.60;101076.00;;;;10425358;28;20203;-77
2021/01/06 23:22:38;;;;;;;45.53;24.80;;;;;1.70;101064.00;;;;10423642;28;20190;-78
2021/01/06 23:27:51;;;;;;;45.43;23.30;;;;;1.70;101063.00;;;;10426582;28;20194;-77
2021/01/06 23:32:52;;;;;;;40.10;23.50;;;;;1.70;101056.00;;;;10415027;28;20201;-77
2021/01/06 23:37:53;;;;;;;40.60;20.27;;;;;1.70;101061.00;;;;10449004;28;20538;-77
2021/01/06 23:42:55;;;;;;;43.97;22.93;;;;;1.70;101063.00;;;;10432638;28;20641;-77
2021/01/06 23:47:56;;;;;;;40.70;22.00;;;;;1.80;101053.00;;;;10449129;28;20263;-77
2021/01/06 23:52:57;;;;;;;41.83;23.67;;;;;1.80;101052.00;;;;10448135;28;20194;-78
2021/01/06 23:57:59;;;;;;;38.73;21.60;;;;;1.80;101053.00;;;;10447723;28;20237;-78
